createdAt,value
2023-11-15T00:00:09.333Z,7.77
2023-11-15T00:01:09.302Z,7.76
2023-11-15T00:02:09.319Z,7.75
2023-11-15T00:03:09.432Z,7.72
2023-11-15T00:04:09.305Z,7.69
2023-11-15T00:05:09.331Z,7.67
2023-11-15T00:06:09.355Z,7.66
2023-11-15T00:07:09.248Z,7.60
2023-11-15T00:08:09.201Z,7.57
2023-11-15T00:09:09.195Z,7.57
2023-11-15T00:10:09.186Z,7.60
2023-11-15T00:11:09.166Z,7.56
2023-11-15T00:12:09.153Z,7.53
2023-11-15T00:13:09.152Z,7.50
2023-11-15T00:14:09.158Z,7.43
2023-11-15T00:15:09.117Z,7.50
2023-11-15T00:16:09.153Z,7.43
2023-11-15T00:17:09.090Z,7.42
2023-11-15T00:18:09.192Z,7.45
2023-11-15T00:19:09.082Z,7.42
2023-11-15T00:20:09.047Z,7.40
2023-11-15T00:21:09.035Z,7.40
2023-11-15T00:22:09.021Z,7.42
2023-11-15T00:23:09.011Z,7.39
2023-11-15T00:24:08.991Z,7.42
2023-11-15T00:25:08.991Z,7.47
2023-11-15T00:26:08.965Z,7.48
2023-11-15T00:27:08.967Z,7.51
2023-11-15T00:28:08.935Z,7.51
2023-11-15T00:29:08.935Z,7.53
2023-11-15T00:30:08.957Z,7.53
2023-11-15T00:31:08.895Z,7.53
2023-11-15T00:32:08.903Z,7.53
2023-11-15T00:33:09.062Z,7.53
2023-11-15T00:34:08.876Z,7.50
2023-11-15T00:35:08.862Z,7.43
2023-11-15T00:36:08.894Z,7.40
2023-11-15T00:37:08.826Z,7.39
2023-11-15T00:38:08.818Z,7.36
2023-11-15T00:39:08.796Z,7.35
2023-11-15T00:40:08.790Z,7.35
2023-11-15T00:41:08.786Z,7.29
2023-11-15T00:42:08.752Z,7.25
2023-11-15T00:43:08.741Z,7.24
2023-11-15T00:44:08.740Z,7.20
2023-11-15T00:45:08.715Z,7.14
2023-11-15T00:46:08.851Z,7.06
2023-11-15T00:47:08.682Z,7.06
2023-11-15T00:48:08.748Z,7.02
2023-11-15T00:49:08.684Z,7.02
2023-11-15T00:50:08.667Z,7.00
2023-11-15T00:51:08.637Z,7.00
2023-11-15T00:52:08.629Z,7.00
2023-11-15T00:53:08.622Z,6.97
2023-11-15T00:54:08.600Z,7.00
2023-11-15T00:55:08.592Z,6.97
2023-11-15T00:56:08.571Z,6.99
2023-11-15T00:57:08.573Z,7.03
2023-11-15T00:58:08.553Z,7.06
2023-11-15T00:59:08.531Z,7.10
2023-11-15T01:00:08.518Z,7.11
2023-11-15T01:01:08.512Z,7.10
2023-11-15T01:02:08.564Z,7.13
2023-11-15T01:03:08.636Z,7.10
2023-11-15T01:04:08.581Z,7.11
2023-11-15T01:05:08.465Z,7.10
2023-11-15T01:06:08.447Z,7.10
2023-11-15T01:07:08.424Z,7.11
2023-11-15T01:08:08.425Z,7.11
2023-11-15T01:09:08.408Z,7.14
2023-11-15T01:10:08.401Z,7.17
2023-11-15T01:11:08.376Z,7.18
2023-11-15T01:12:08.391Z,7.21
2023-11-15T01:13:08.346Z,7.24
2023-11-15T01:14:08.355Z,7.21
2023-11-15T01:15:08.326Z,7.23
2023-11-15T01:16:08.326Z,7.24
2023-11-15T01:17:08.300Z,7.23
2023-11-15T01:18:08.397Z,7.24
2023-11-15T01:19:08.274Z,7.23
2023-11-15T01:20:08.264Z,7.21
2023-11-15T01:21:08.241Z,7.23
2023-11-15T01:22:08.260Z,7.24
2023-11-15T01:23:08.227Z,7.25
2023-11-15T01:24:08.231Z,7.28
2023-11-15T01:25:08.204Z,7.31
2023-11-15T01:26:08.197Z,7.32
2023-11-15T01:27:08.178Z,7.35
2023-11-15T01:28:08.171Z,7.40
2023-11-15T01:29:08.139Z,7.40
2023-11-15T01:30:08.128Z,7.45
2023-11-15T01:31:08.130Z,7.42
2023-11-15T01:32:08.107Z,7.42
2023-11-15T01:33:08.230Z,7.50
2023-11-15T01:34:08.149Z,7.50
2023-11-15T01:35:08.063Z,7.51
2023-11-15T01:36:08.044Z,7.51
2023-11-15T01:37:08.040Z,7.54
2023-11-15T01:38:08.015Z,7.57
2023-11-15T01:39:08.013Z,7.53
2023-11-15T01:40:08.111Z,7.53
2023-11-15T01:41:07.981Z,7.58
2023-11-15T01:42:07.986Z,7.60
2023-11-15T01:43:07.970Z,7.61
2023-11-15T01:44:07.940Z,7.61
2023-11-15T01:45:07.930Z,7.60
2023-11-15T01:46:07.972Z,7.66
2023-11-15T01:47:07.913Z,7.69
2023-11-15T01:48:07.953Z,7.67
2023-11-15T01:49:07.888Z,7.69
2023-11-15T01:50:07.900Z,7.67
2023-11-15T01:51:07.862Z,7.69
2023-11-15T01:52:07.847Z,7.69
2023-11-15T01:53:07.824Z,7.66
2023-11-15T01:54:07.815Z,7.69
2023-11-15T01:55:07.790Z,7.66
2023-11-15T01:56:07.785Z,7.69
2023-11-15T01:57:07.766Z,7.66
2023-11-15T01:58:07.758Z,7.63
2023-11-15T01:59:07.740Z,7.61
2023-11-15T02:00:07.739Z,7.56
2023-11-15T02:01:07.722Z,7.57
2023-11-15T02:02:07.702Z,7.56
2023-11-15T02:03:07.834Z,7.56
2023-11-15T02:04:07.795Z,7.57
2023-11-15T02:05:07.660Z,7.54
2023-11-15T02:06:07.678Z,7.54
2023-11-15T02:07:07.637Z,7.51
2023-11-15T02:08:07.632Z,7.56
2023-11-15T02:09:07.615Z,7.51
2023-11-15T02:10:07.615Z,7.53
2023-11-15T02:11:07.594Z,7.54
2023-11-15T02:12:07.569Z,7.54
2023-11-15T02:13:07.559Z,7.57
2023-11-15T02:14:07.540Z,7.54
2023-11-15T02:15:07.548Z,7.51
2023-11-15T02:16:07.535Z,7.50
2023-11-15T02:17:07.563Z,7.47
2023-11-15T02:18:07.573Z,7.48
2023-11-15T02:19:07.484Z,7.47
2023-11-15T02:20:07.469Z,7.47
2023-11-15T02:21:07.487Z,7.45
2023-11-15T02:22:07.569Z,7.40
2023-11-15T02:23:07.425Z,7.39
2023-11-15T02:24:07.429Z,7.39
2023-11-15T02:25:07.398Z,7.33
2023-11-15T02:26:07.395Z,7.31
2023-11-15T02:27:07.379Z,7.31
2023-11-15T02:28:07.375Z,7.28
2023-11-15T02:29:07.363Z,7.24
2023-11-15T02:30:07.339Z,7.23
2023-11-15T02:31:07.407Z,7.24
2023-11-15T02:32:07.314Z,7.24
2023-11-15T02:33:07.397Z,7.23
2023-11-15T02:34:07.287Z,7.23
2023-11-15T02:35:07.337Z,7.18
2023-11-15T02:36:07.264Z,7.23
2023-11-15T02:37:07.240Z,7.24
2023-11-15T02:38:07.263Z,7.23
2023-11-15T02:39:07.214Z,7.23
2023-11-15T02:40:07.211Z,7.21
2023-11-15T02:41:07.207Z,7.15
2023-11-15T02:42:07.186Z,7.15
2023-11-15T02:43:07.183Z,7.11
2023-11-15T02:44:07.219Z,7.15
2023-11-15T02:45:07.176Z,7.10
2023-11-15T02:46:07.169Z,7.11
2023-11-15T02:47:07.118Z,7.07
2023-11-15T02:48:07.157Z,7.11
2023-11-15T02:49:07.122Z,7.13
2023-11-15T02:50:07.075Z,7.14
2023-11-15T02:51:07.056Z,7.13
2023-11-15T02:52:07.053Z,7.14
2023-11-15T02:53:07.043Z,7.13
2023-11-15T02:54:07.061Z,7.14
2023-11-15T02:55:07.009Z,7.14
2023-11-15T02:56:07.004Z,7.15
2023-11-15T02:57:06.991Z,7.14
2023-11-15T02:58:06.980Z,7.11
2023-11-15T02:59:06.950Z,7.10
2023-11-15T03:00:06.938Z,7.11
2023-11-15T03:01:06.924Z,7.15
2023-11-15T03:02:06.921Z,7.17
2023-11-15T03:03:07.032Z,7.14
2023-11-15T03:04:06.983Z,7.17
2023-11-15T03:05:06.888Z,7.14
2023-11-15T03:06:06.911Z,7.17
2023-11-15T03:07:06.858Z,7.17
2023-11-15T03:08:06.990Z,7.17
2023-11-15T03:09:06.834Z,7.17
2023-11-15T03:10:06.848Z,7.15
2023-11-15T03:11:06.795Z,7.18
2023-11-15T03:12:06.793Z,7.15
2023-11-15T03:13:06.816Z,7.17
2023-11-15T03:14:06.763Z,7.17
2023-11-15T03:15:06.787Z,7.21
2023-11-15T03:16:06.743Z,7.23
2023-11-15T03:17:06.723Z,7.20
2023-11-15T03:18:06.774Z,7.25
2023-11-15T03:19:06.694Z,7.25
2023-11-15T03:20:06.698Z,7.25
2023-11-15T03:21:06.671Z,7.21
2023-11-15T03:22:06.663Z,7.20
2023-11-15T03:23:06.643Z,7.20
2023-11-15T03:24:06.627Z,7.21
2023-11-15T03:25:06.623Z,7.20
2023-11-15T03:26:06.634Z,7.17
2023-11-15T03:27:06.591Z,7.17
2023-11-15T03:28:06.588Z,7.20
2023-11-15T03:29:06.564Z,7.20
2023-11-15T03:30:06.566Z,7.18
2023-11-15T03:31:06.539Z,7.21
2023-11-15T03:32:06.560Z,7.21
2023-11-15T03:33:06.598Z,7.18
2023-11-15T03:34:06.529Z,7.23
2023-11-15T03:35:06.500Z,7.21
2023-11-15T03:36:06.482Z,7.21
2023-11-15T03:37:06.473Z,7.23
2023-11-15T03:38:06.459Z,7.23
2023-11-15T03:39:06.429Z,7.20
2023-11-15T03:40:06.431Z,7.20
2023-11-15T03:41:06.399Z,7.20
2023-11-15T03:42:06.426Z,7.23
2023-11-15T03:43:06.392Z,7.21
2023-11-15T03:44:06.367Z,7.20
2023-11-15T03:45:06.468Z,7.18
2023-11-15T03:46:06.349Z,7.15
2023-11-15T03:47:06.335Z,7.11
2023-11-15T03:48:06.392Z,7.10
2023-11-15T03:49:06.306Z,7.03
2023-11-15T03:50:06.298Z,7.03
2023-11-15T03:51:06.274Z,6.99
2023-11-15T03:52:06.261Z,6.96
2023-11-15T03:53:06.252Z,6.97
2023-11-15T03:54:06.243Z,6.96
2023-11-15T03:55:06.240Z,6.95
2023-11-15T03:56:06.205Z,6.89
2023-11-15T03:57:06.198Z,6.88
2023-11-15T03:58:06.216Z,6.89
2023-11-15T03:59:06.174Z,6.88
2023-11-15T04:00:06.167Z,6.88
2023-11-15T04:01:06.151Z,6.88
2023-11-15T04:02:06.164Z,6.88
2023-11-15T04:03:06.428Z,6.84
2023-11-15T04:04:06.368Z,6.78
2023-11-15T04:05:06.167Z,6.78
2023-11-15T04:06:06.098Z,6.75
2023-11-15T04:07:06.065Z,6.67
2023-11-15T04:08:06.049Z,6.64
2023-11-15T04:09:06.044Z,6.62
2023-11-15T04:10:06.032Z,6.60
2023-11-15T04:11:06.015Z,6.57
2023-11-15T04:12:06.007Z,6.56
2023-11-15T04:13:05.997Z,6.51
2023-11-15T04:14:06.030Z,6.54
2023-11-15T04:15:05.955Z,6.51
2023-11-15T04:16:06.018Z,6.46
2023-11-15T04:17:05.936Z,6.48
2023-11-15T04:18:06.067Z,6.45
2023-11-15T04:19:05.933Z,6.46
2023-11-15T04:20:05.923Z,6.45
2023-11-15T04:21:05.889Z,6.46
2023-11-15T04:22:12.363Z,6.45
2023-11-15T04:23:05.858Z,6.44
2023-11-15T04:24:05.869Z,6.44
2023-11-15T04:25:05.870Z,6.44
2023-11-15T04:26:05.839Z,6.44
2023-11-15T04:27:05.833Z,6.41
2023-11-15T04:28:05.815Z,6.38
2023-11-15T04:29:05.801Z,6.38
2023-11-15T04:30:05.804Z,6.33
2023-11-15T04:31:05.753Z,6.36
2023-11-15T04:32:05.745Z,6.33
2023-11-15T04:33:05.858Z,6.31
2023-11-15T04:34:05.710Z,6.31
2023-11-15T04:35:05.707Z,6.33
2023-11-15T04:36:05.732Z,6.36
2023-11-15T04:37:05.693Z,6.35
2023-11-15T04:38:05.682Z,6.39
2023-11-15T04:39:05.681Z,6.38
2023-11-15T04:40:05.650Z,6.38
2023-11-15T04:41:05.639Z,6.41
2023-11-15T04:42:05.717Z,6.42
2023-11-15T04:43:05.612Z,6.42
2023-11-15T04:44:05.644Z,6.42
2023-11-15T04:45:05.753Z,6.42
2023-11-15T04:46:05.639Z,6.42
2023-11-15T04:47:05.562Z,6.44
2023-11-15T04:48:05.595Z,6.45
2023-11-15T04:49:05.535Z,6.44
2023-11-15T04:50:05.538Z,6.46
2023-11-15T04:51:05.552Z,6.45
2023-11-15T04:52:05.497Z,6.45
2023-11-15T04:53:05.468Z,6.48
2023-11-15T04:54:05.522Z,6.51
2023-11-15T04:55:05.454Z,6.54
2023-11-15T04:56:05.436Z,6.56
2023-11-15T04:57:05.506Z,6.57
2023-11-15T04:58:05.412Z,6.56
2023-11-15T04:59:05.424Z,6.54
2023-11-15T05:00:05.456Z,6.57
2023-11-15T05:01:05.402Z,6.59
2023-11-15T05:02:05.379Z,6.59
2023-11-15T05:03:05.565Z,6.60
2023-11-15T05:04:05.547Z,6.60
2023-11-15T05:05:05.356Z,6.63
2023-11-15T05:06:05.356Z,6.62
2023-11-15T05:07:05.309Z,6.62
2023-11-15T05:08:05.281Z,6.63
2023-11-15T05:09:05.266Z,6.63
2023-11-15T05:10:05.254Z,6.63
2023-11-15T05:11:05.236Z,6.66
2023-11-15T05:12:05.228Z,6.69
2023-11-15T05:13:05.220Z,6.67
2023-11-15T05:14:05.209Z,6.66
2023-11-15T05:15:05.189Z,6.69
2023-11-15T05:16:05.230Z,6.66
2023-11-15T05:17:05.160Z,6.67
2023-11-15T05:18:05.325Z,6.69
2023-11-15T05:19:05.137Z,6.72
2023-11-15T05:20:05.138Z,6.69
2023-11-15T05:21:05.137Z,6.70
2023-11-15T05:22:05.111Z,6.72
2023-11-15T05:23:05.098Z,6.67
2023-11-15T05:24:05.096Z,6.69
2023-11-15T05:25:05.056Z,6.70
2023-11-15T05:26:05.042Z,6.72
2023-11-15T05:27:05.098Z,6.70
2023-11-15T05:28:05.028Z,6.72
2023-11-15T05:29:05.058Z,6.77
2023-11-15T05:30:04.994Z,6.74
2023-11-15T05:31:04.985Z,6.75
2023-11-15T05:32:04.970Z,6.75
2023-11-15T05:33:05.012Z,6.70
2023-11-15T05:34:04.959Z,6.74
2023-11-15T05:35:04.938Z,6.69
2023-11-15T05:36:04.912Z,6.67
2023-11-15T05:37:04.895Z,6.70
2023-11-15T05:38:04.894Z,6.70
2023-11-15T05:39:04.982Z,6.70
2023-11-15T05:40:04.863Z,6.72
2023-11-15T05:41:04.855Z,6.72
2023-11-15T05:42:04.846Z,6.69
2023-11-15T05:43:04.817Z,6.63
2023-11-15T05:44:04.822Z,6.64
2023-11-15T05:45:04.837Z,6.64
2023-11-15T05:46:04.810Z,6.66
2023-11-15T05:47:04.772Z,6.64
2023-11-15T05:48:04.791Z,6.66
2023-11-15T05:49:04.746Z,6.63
2023-11-15T05:50:04.754Z,6.64
2023-11-15T05:51:04.725Z,6.64
2023-11-15T05:52:04.726Z,6.64
2023-11-15T05:53:04.694Z,6.67
2023-11-15T05:54:04.698Z,6.67
2023-11-15T05:55:04.667Z,6.75
2023-11-15T05:56:04.648Z,6.69
2023-11-15T05:57:04.688Z,6.72
2023-11-15T05:58:04.635Z,6.75
2023-11-15T05:59:04.610Z,6.72
2023-11-15T06:00:04.625Z,6.72
2023-11-15T06:01:04.588Z,6.70
2023-11-15T06:02:04.618Z,6.67
2023-11-15T06:03:04.634Z,6.63
2023-11-15T06:04:04.554Z,6.62
2023-11-15T06:05:04.551Z,6.64
2023-11-15T06:06:04.675Z,6.66
2023-11-15T06:07:04.507Z,6.66
2023-11-15T06:08:05.367Z,6.67
2023-11-15T06:09:04.490Z,6.64
2023-11-15T06:10:04.485Z,6.66
2023-11-15T06:11:04.463Z,6.70
2023-11-15T06:12:04.462Z,6.67
2023-11-15T06:13:04.424Z,6.66
2023-11-15T06:14:04.426Z,6.66
2023-11-15T06:15:04.468Z,6.64
2023-11-15T06:16:04.385Z,6.66
2023-11-15T06:17:04.418Z,6.64
2023-11-15T06:18:04.449Z,6.64
2023-11-15T06:19:04.345Z,6.60
2023-11-15T06:20:07.028Z,6.62
2023-11-15T06:21:04.353Z,6.62
2023-11-15T06:22:04.385Z,6.66
2023-11-15T06:23:04.304Z,6.62
2023-11-15T06:24:04.372Z,6.62
2023-11-15T06:25:04.272Z,6.67
2023-11-15T06:26:04.268Z,6.69
2023-11-15T06:27:04.279Z,6.70
2023-11-15T06:28:04.260Z,6.69
2023-11-15T06:29:04.232Z,6.69
2023-11-15T06:30:04.333Z,6.74
2023-11-15T06:31:04.197Z,6.69
2023-11-15T06:32:04.187Z,6.72
2023-11-15T06:33:04.290Z,6.70
2023-11-15T06:34:04.252Z,6.70
2023-11-15T06:35:04.155Z,6.70
2023-11-15T06:36:04.219Z,6.69
2023-11-15T06:37:04.118Z,6.70
2023-11-15T06:38:04.151Z,6.74
2023-11-15T06:39:04.117Z,6.74
2023-11-15T06:40:04.074Z,6.75
2023-11-15T06:41:04.074Z,6.79
2023-11-15T06:42:04.088Z,6.77
2023-11-15T06:43:04.035Z,6.81
2023-11-15T06:44:04.034Z,6.81
2023-11-15T06:45:04.071Z,6.78
2023-11-15T06:46:04.001Z,6.82
2023-11-15T06:47:04.035Z,6.82
2023-11-15T06:48:04.069Z,6.84
2023-11-15T06:49:03.952Z,6.85
2023-11-15T06:50:03.950Z,6.87
2023-11-15T06:51:04.002Z,6.84
2023-11-15T06:52:03.915Z,6.88
2023-11-15T06:53:03.911Z,6.88
2023-11-15T06:54:04.125Z,6.85
2023-11-15T06:55:03.889Z,6.93
2023-11-15T06:56:03.873Z,6.95
2023-11-15T06:57:03.945Z,6.95
2023-11-15T06:58:03.857Z,6.96
2023-11-15T06:59:03.833Z,6.95
2023-11-15T07:00:03.937Z,6.95
2023-11-15T07:01:03.843Z,6.93
2023-11-15T07:02:03.802Z,6.95
2023-11-15T07:03:03.925Z,6.93
2023-11-15T07:04:03.952Z,6.93
2023-11-15T07:05:03.761Z,6.96
2023-11-15T07:06:03.791Z,6.96
2023-11-15T07:07:03.738Z,6.99
2023-11-15T07:08:03.726Z,7.03
2023-11-15T07:09:03.840Z,7.06
2023-11-15T07:10:03.727Z,7.07
2023-11-15T07:11:03.681Z,7.13
2023-11-15T07:12:03.669Z,7.13
2023-11-15T07:13:03.677Z,7.17
2023-11-15T07:14:03.646Z,7.17
2023-11-15T07:15:03.706Z,7.18
2023-11-15T07:16:03.726Z,7.20
2023-11-15T07:17:03.599Z,7.21
2023-11-15T07:18:03.647Z,7.24
2023-11-15T07:19:03.578Z,7.24
2023-11-15T07:20:03.571Z,7.28
2023-11-15T07:21:03.601Z,7.31
2023-11-15T07:22:03.527Z,7.29
2023-11-15T07:23:03.520Z,7.33
2023-11-15T07:24:03.539Z,7.38
2023-11-15T07:25:03.487Z,7.35
2023-11-15T07:26:03.521Z,7.36
2023-11-15T07:27:03.532Z,7.36
2023-11-15T07:28:03.447Z,7.39
2023-11-15T07:29:03.459Z,7.39
2023-11-15T07:30:03.486Z,7.38
2023-11-15T07:31:03.413Z,7.36
2023-11-15T07:32:03.439Z,7.38
2023-11-15T07:33:03.498Z,7.38
2023-11-15T07:34:03.378Z,7.38
2023-11-15T07:35:03.365Z,7.40
2023-11-15T07:36:03.363Z,7.43
2023-11-15T07:37:03.336Z,7.42
2023-11-15T07:38:03.344Z,7.39
2023-11-15T07:39:03.398Z,7.40
2023-11-15T07:40:03.301Z,7.40
2023-11-15T07:41:03.279Z,7.39
2023-11-15T07:42:03.354Z,7.36
2023-11-15T07:43:03.260Z,7.40
2023-11-15T07:44:03.246Z,7.40
2023-11-15T07:45:03.388Z,7.45
2023-11-15T07:46:03.228Z,7.45
2023-11-15T07:47:03.225Z,7.58
2023-11-15T07:48:03.249Z,7.82
2023-11-15T07:49:03.176Z,7.97
2023-11-15T07:50:03.183Z,8.08
2023-11-15T07:51:03.178Z,8.20
2023-11-15T07:52:03.147Z,8.76
2023-11-15T07:53:03.133Z,9.59
2023-11-15T07:54:03.214Z,10.59
2023-11-15T07:55:03.108Z,11.30
2023-11-15T07:56:03.103Z,12.04
2023-11-15T07:57:03.137Z,12.70
2023-11-15T07:58:03.096Z,13.38
2023-11-15T07:59:03.053Z,13.89
2023-11-15T08:00:03.161Z,14.25
2023-11-15T08:01:03.029Z,14.50
2023-11-15T08:02:03.015Z,14.77
2023-11-15T08:03:03.071Z,14.72
2023-11-15T08:04:03.222Z,14.73
2023-11-15T08:05:03.014Z,14.96
2023-11-15T08:06:03.008Z,15.27
2023-11-15T08:07:02.957Z,14.28
2023-11-15T08:08:03.467Z,13.37
2023-11-15T08:09:02.943Z,12.68
2023-11-15T08:10:02.924Z,12.25
2023-11-15T08:11:02.903Z,11.70
2023-11-15T08:12:02.930Z,11.19
2023-11-15T08:13:02.867Z,10.54
2023-11-15T08:14:02.891Z,10.13
2023-11-15T08:15:02.919Z,9.72
2023-11-15T08:16:02.841Z,9.50
2023-11-15T08:17:02.854Z,10.04
2023-11-15T08:18:02.976Z,10.61
2023-11-15T08:19:02.900Z,11.29
2023-11-15T08:20:02.785Z,11.72
2023-11-15T08:21:02.870Z,12.32
2023-11-15T08:22:02.746Z,12.87
2023-11-15T08:23:02.754Z,13.77
2023-11-15T08:24:02.853Z,13.46
2023-11-15T08:25:02.708Z,13.11
2023-11-15T08:26:02.714Z,13.19
2023-11-15T08:27:02.723Z,13.20
2023-11-15T08:28:03.212Z,13.42
2023-11-15T08:29:02.663Z,13.71
2023-11-15T08:30:02.716Z,14.03
2023-11-15T08:31:02.634Z,13.54
2023-11-15T08:32:02.623Z,13.23
2023-11-15T08:33:02.740Z,13.37
2023-11-15T08:34:02.716Z,13.19
2023-11-15T08:35:02.586Z,12.27
2023-11-15T08:36:02.582Z,11.66
2023-11-15T08:37:02.549Z,11.30
2023-11-15T08:38:02.556Z,11.25
2023-11-15T08:39:02.581Z,11.54
2023-11-15T08:40:05.222Z,11.08
2023-11-15T08:41:03.573Z,10.81
2023-11-15T08:42:02.570Z,10.71
2023-11-15T08:43:02.480Z,10.79
2023-11-15T08:44:02.465Z,10.86
2023-11-15T08:45:02.538Z,10.94
2023-11-15T08:46:02.551Z,11.07
2023-11-15T08:47:02.427Z,11.30
2023-11-15T08:48:02.464Z,11.88
2023-11-15T08:49:02.555Z,12.72
2023-11-15T08:50:02.387Z,13.13
2023-11-15T08:51:02.442Z,13.86
2023-11-15T08:52:02.372Z,14.29
2023-11-15T08:53:02.348Z,14.70
2023-11-15T08:54:02.370Z,14.68
2023-11-15T08:55:02.334Z,13.99
2023-11-15T08:56:02.303Z,13.52
2023-11-15T08:57:02.340Z,13.00
2023-11-15T08:58:02.292Z,12.70
2023-11-15T08:59:02.274Z,12.97
2023-11-15T09:00:02.375Z,13.39
2023-11-15T09:01:02.278Z,13.79
2023-11-15T09:02:02.282Z,14.07
2023-11-15T09:03:02.336Z,14.18
2023-11-15T09:04:02.292Z,14.00
2023-11-15T09:05:02.255Z,13.65
2023-11-15T09:06:02.193Z,13.23
2023-11-15T09:07:02.159Z,13.09
2023-11-15T09:08:02.156Z,13.04
2023-11-15T09:09:02.245Z,13.05
2023-11-15T09:10:02.127Z,13.12
2023-11-15T09:11:02.112Z,12.93
2023-11-15T09:12:02.170Z,12.65
2023-11-15T09:13:02.082Z,12.29
2023-11-15T09:14:02.062Z,12.02
2023-11-15T09:15:02.168Z,11.65
2023-11-15T09:16:02.046Z,11.30
2023-11-15T09:17:02.068Z,11.05
2023-11-15T09:18:02.100Z,10.81
2023-11-15T09:19:02.004Z,10.61
2023-11-15T09:20:02.001Z,10.46
2023-11-15T09:21:02.007Z,10.35
2023-11-15T09:22:01.961Z,10.28
2023-11-15T09:23:01.958Z,10.19
2023-11-15T09:24:01.964Z,10.05
2023-11-15T09:25:07.288Z,9.99
2023-11-15T09:26:02.948Z,9.91
2023-11-15T09:27:01.998Z,9.83
2023-11-15T09:28:01.889Z,9.77
2023-11-15T09:29:01.868Z,9.74
2023-11-15T09:30:01.935Z,9.66
2023-11-15T09:31:01.853Z,9.61
2023-11-15T09:32:01.831Z,9.55
2023-11-15T09:33:01.908Z,9.50
2023-11-15T09:34:01.973Z,9.48
2023-11-15T09:35:01.820Z,9.40
2023-11-15T09:36:02.186Z,9.36
2023-11-15T09:37:01.761Z,9.36
2023-11-15T09:38:01.757Z,9.34
2023-11-15T09:39:01.768Z,9.26
2023-11-15T09:40:01.726Z,9.26
2023-11-15T09:41:01.851Z,9.26
2023-11-15T09:42:01.727Z,9.22
2023-11-15T09:43:01.678Z,9.14
2023-11-15T09:44:01.674Z,9.06
2023-11-15T09:45:01.687Z,9.04
2023-11-15T09:46:01.660Z,9.00
2023-11-15T09:47:01.647Z,8.95
2023-11-15T09:48:01.678Z,8.94
2023-11-15T09:50:01.625Z,8.94
2023-11-15T09:51:01.766Z,8.92
2023-11-15T09:52:01.572Z,8.92
2023-11-15T09:53:01.557Z,8.89
2023-11-15T09:54:08.715Z,8.89
2023-11-15T09:55:02.554Z,8.89
2023-11-15T09:56:01.534Z,8.99
2023-11-15T09:57:01.516Z,9.10
2023-11-15T09:58:01.480Z,9.16
2023-11-15T09:59:01.475Z,9.18
2023-11-15T10:00:12.063Z,9.16
2023-11-15T10:01:02.577Z,9.22
2023-11-15T10:02:01.436Z,9.36
2023-11-15T10:03:01.586Z,9.43
2023-11-15T10:04:01.489Z,9.51
2023-11-15T10:05:01.412Z,9.62
2023-11-15T10:06:01.768Z,9.68
2023-11-15T10:07:06.127Z,9.69
2023-11-15T10:08:01.457Z,9.73
2023-11-15T10:09:01.392Z,9.74
2023-11-15T10:10:01.331Z,9.79
2023-11-15T10:11:01.328Z,9.83
2023-11-15T10:12:01.313Z,9.95
2023-11-15T10:13:01.286Z,10.04
2023-11-15T10:14:01.285Z,10.13
2023-11-15T10:15:01.310Z,10.12
2023-11-15T10:16:01.285Z,10.17
2023-11-15T10:17:01.243Z,10.40
2023-11-15T10:18:01.296Z,10.48
2023-11-15T10:19:01.219Z,10.48
2023-11-15T10:20:01.196Z,10.41
2023-11-15T10:21:01.236Z,10.40
2023-11-15T10:22:01.200Z,10.41
2023-11-15T10:23:01.181Z,10.49
2023-11-15T10:24:01.178Z,10.56
2023-11-15T10:25:01.134Z,10.59
2023-11-15T10:26:01.135Z,10.57
2023-11-15T10:27:01.199Z,10.49
2023-11-15T10:28:01.099Z,10.35
2023-11-15T10:29:01.088Z,10.20
2023-11-15T10:30:01.243Z,10.05
2023-11-15T10:31:01.064Z,9.91
2023-11-15T10:32:03.187Z,9.73
2023-11-15T10:33:01.077Z,9.66
2023-11-15T10:34:01.012Z,9.56
2023-11-15T10:35:01.024Z,9.46
2023-11-15T10:36:01.021Z,9.39
2023-11-15T10:37:02.431Z,9.32
2023-11-15T10:38:01.055Z,9.29
2023-11-15T10:39:01.177Z,9.26
2023-11-15T10:40:00.939Z,9.26
2023-11-15T10:41:00.932Z,9.21
2023-11-15T10:42:00.941Z,9.23
2023-11-15T10:43:00.917Z,9.23
2023-11-15T10:44:00.891Z,9.34
2023-11-15T10:45:00.936Z,9.39
2023-11-15T10:46:00.961Z,9.47
2023-11-15T10:47:00.846Z,9.59
2023-11-15T10:48:00.887Z,9.54
2023-11-15T10:49:00.842Z,9.58
2023-11-15T10:50:00.809Z,9.61
2023-11-15T10:51:00.854Z,9.66
2023-11-15T10:52:00.813Z,9.74
2023-11-15T10:53:00.771Z,9.74
2023-11-15T10:54:00.819Z,9.79
2023-11-15T10:55:00.754Z,9.86
2023-11-15T10:56:00.740Z,9.95
2023-11-15T10:57:00.750Z,10.07
2023-11-15T10:58:00.721Z,10.16
2023-11-15T10:59:00.704Z,10.19
2023-11-15T11:00:00.934Z,10.25
2023-11-15T11:01:00.765Z,10.28
2023-11-15T11:02:00.705Z,10.28
2023-11-15T11:03:00.758Z,10.31
2023-11-15T11:04:00.784Z,10.34
2023-11-15T11:05:00.720Z,10.38
2023-11-15T11:06:00.704Z,10.51
2023-11-15T11:07:00.588Z,10.67
2023-11-15T11:08:00.584Z,10.74
2023-11-15T11:09:00.622Z,10.82
2023-11-15T11:10:00.583Z,10.94
2023-11-15T11:11:03.477Z,10.99
2023-11-15T11:12:00.540Z,11.07
2023-11-15T11:13:00.531Z,11.15
2023-11-15T11:14:00.497Z,11.25
2023-11-15T11:15:00.520Z,11.30
2023-11-15T11:16:00.517Z,11.37
2023-11-15T11:17:00.552Z,11.40
2023-11-15T11:18:00.572Z,11.47
2023-11-15T11:19:00.506Z,11.41
2023-11-15T11:20:00.415Z,11.47
2023-11-15T11:21:00.445Z,11.47
2023-11-15T11:22:00.392Z,11.45
2023-11-15T11:23:00.398Z,11.47
2023-11-15T11:24:00.488Z,11.32
2023-11-15T11:25:00.368Z,11.12
2023-11-15T11:26:00.373Z,10.96
2023-11-15T11:27:00.409Z,10.87
2023-11-15T11:28:00.323Z,10.87
2023-11-15T11:29:00.311Z,10.84
2023-11-15T11:30:00.437Z,10.81
2023-11-15T11:31:00.275Z,10.64
2023-11-15T11:32:00.276Z,10.56
2023-11-15T11:33:00.353Z,10.53
2023-11-15T11:34:00.234Z,10.49
2023-11-15T11:35:00.225Z,10.41
2023-11-15T11:36:00.339Z,10.35
2023-11-15T11:37:00.239Z,10.28
2023-11-15T11:38:00.234Z,10.25
2023-11-15T11:39:00.250Z,10.17
2023-11-15T11:40:00.215Z,10.07
2023-11-15T11:41:00.156Z,10.01
2023-11-15T11:42:00.231Z,9.95
2023-11-15T11:43:00.133Z,9.99
2023-11-15T11:44:00.129Z,9.97
2023-11-15T11:45:00.149Z,9.98
2023-11-15T11:46:00.135Z,9.94
2023-11-15T11:47:00.066Z,9.87
2023-11-15T11:48:00.144Z,9.84
2023-11-15T11:49:00.048Z,9.80
2023-11-15T11:50:00.050Z,9.83
2023-11-15T11:51:00.036Z,9.86
2023-11-15T11:52:00.012Z,9.86
2023-11-15T11:52:59.991Z,9.92
2023-11-15T11:54:00.004Z,9.94
2023-11-15T11:54:59.962Z,9.98
2023-11-15T11:55:59.954Z,10.02
2023-11-15T11:56:59.991Z,10.02
2023-11-15T11:57:59.948Z,10.09
2023-11-15T11:58:59.945Z,10.16
2023-11-15T11:59:59.942Z,10.16
2023-11-15T12:00:59.883Z,10.23
2023-11-15T12:01:59.945Z,10.25
2023-11-15T12:03:03.621Z,10.23
2023-11-15T12:04:01.087Z,10.16
2023-11-15T12:04:59.850Z,10.13
2023-11-15T12:05:59.837Z,10.07
2023-11-15T12:06:59.829Z,10.02
2023-11-15T12:07:59.805Z,9.98
2023-11-15T12:08:59.785Z,9.94
2023-11-15T12:09:59.773Z,9.91
2023-11-15T12:10:59.922Z,9.87
2023-11-15T12:11:59.771Z,9.91
2023-11-15T12:12:59.726Z,9.97
2023-11-15T12:13:59.759Z,10.01
2023-11-15T12:14:59.838Z,10.05
2023-11-15T12:15:59.701Z,10.15
2023-11-15T12:16:59.700Z,10.20
2023-11-15T12:17:59.768Z,10.28
2023-11-15T12:18:59.659Z,10.31
2023-11-15T12:19:59.635Z,10.35
2023-11-15T12:20:59.650Z,10.35
2023-11-15T12:21:59.620Z,10.37
2023-11-15T12:22:59.602Z,10.38
2023-11-15T12:23:59.609Z,10.38
2023-11-15T12:24:59.567Z,10.41
2023-11-15T12:25:59.564Z,10.37
2023-11-15T12:26:59.619Z,10.41
2023-11-15T12:27:59.528Z,10.46
2023-11-15T12:28:59.523Z,10.46
2023-11-15T12:29:59.542Z,10.49
2023-11-15T12:30:59.526Z,10.51
2023-11-15T12:31:59.477Z,10.46
2023-11-15T12:32:59.554Z,10.48
2023-11-15T12:33:59.456Z,10.44
2023-11-15T12:34:59.437Z,10.44
2023-11-15T12:35:59.489Z,10.38
2023-11-15T12:36:59.443Z,10.48
2023-11-15T12:37:59.421Z,10.44
2023-11-15T12:38:59.499Z,10.44
2023-11-15T12:39:59.371Z,10.41
2023-11-15T12:40:59.360Z,10.40
2023-11-15T12:41:59.378Z,10.40
2023-11-15T12:42:59.331Z,10.41
2023-11-15T12:43:59.337Z,10.38
2023-11-15T12:44:59.335Z,10.34
2023-11-15T12:45:59.360Z,10.31
2023-11-15T12:46:59.531Z,10.26
2023-11-15T12:47:59.334Z,10.26
2023-11-15T12:48:59.276Z,10.26
2023-11-15T12:49:59.249Z,10.25
2023-11-15T12:50:59.279Z,10.22
2023-11-15T12:51:59.219Z,10.19
2023-11-15T12:52:59.200Z,10.15
2023-11-15T12:53:59.214Z,10.13
2023-11-15T12:54:59.175Z,10.12
2023-11-15T12:55:59.179Z,10.07
2023-11-15T12:56:59.191Z,10.04
2023-11-15T12:57:59.145Z,9.99
2023-11-15T12:58:59.130Z,9.97
2023-11-15T12:59:59.140Z,9.94
2023-11-15T13:00:59.282Z,9.91
2023-11-15T13:01:59.376Z,9.87
2023-11-15T13:02:59.257Z,9.84
2023-11-15T13:03:59.183Z,9.82
2023-11-15T13:04:59.071Z,9.80
2023-11-15T13:05:59.079Z,9.82
2023-11-15T13:06:59.025Z,9.82
2023-11-15T13:07:59.023Z,9.83
2023-11-15T13:08:59.026Z,9.86
2023-11-15T13:09:59.003Z,9.89
2023-11-15T13:10:58.962Z,9.91
2023-11-15T13:11:58.965Z,9.94